Time;durP1;ratioP1;P1;durP2;ratioP2;P2;SDS_P1;SDS_P2;PMS_P1;PMS_P2;Temp;Humidity;BMP_temperature;BMP_pressure;BME280_temperature;BME280_humidity;BME280_pressure;Samples;Min_cycle;Max_cycle;Signal;HPM_P1;HPM_P2
2023/05/31 07:14:50;;;;;;;;;16.33;14.67;;;;;;;;6239603;22;1397711;-68
2023/05/31 07:17:15;;;;;;;;;14.33;13.00;;;;;;;;6401259;22;45215;-68
2023/05/31 07:19:46;;;;;;;;;12.00;12.00;;;;;;;;6404169;22;45946;-68
2023/05/31 07:22:15;;;;;;;;;15.00;15.00;;;;;;;;6375637;22;45275;-68
2023/05/31 07:24:41;;;;;;;;;15.67;14.00;;;;;;;;6403747;22;45579;-69
2023/05/31 07:27:07;;;;;;;;;15.00;15.00;;;;;;;;6404040;22;45509;-68
2023/05/31 07:29:32;;;;;;;;;14.00;13.67;;;;;;;;6403661;22;46328;-68
2023/05/31 07:31:58;;;;;;;;;15.33;15.00;;;;;;;;6403950;22;45229;-68
2023/05/31 07:34:23;;;;;;;;;14.67;13.00;;;;;;;;6373781;22;45262;-68
2023/05/31 07:36:48;;;;;;;;;12.67;10.00;;;;;;;;6373730;22;45949;-69
2023/05/31 07:39:13;;;;;;;;;15.00;12.00;;;;;;;;6375672;22;47969;-68
2023/05/31 07:41:39;;;;;;;;;14.67;13.67;;;;;;;;6404691;22;45237;-68
2023/05/31 07:44:05;;;;;;;;;11.33;11.33;;;;;;;;6403976;22;45198;-68
2023/05/31 07:46:30;;;;;;;;;13.67;13.67;;;;;;;;6404455;22;45410;-68
2023/05/31 07:48:55;;;;;;;;;13.00;11.33;;;;;;;;6403529;22;46180;-70
2023/05/31 07:51:20;;;;;;;;;15.33;13.00;;;;;;;;6404768;22;45253;-69
2023/05/31 07:53:46;;;;;;;;;12.67;10.67;;;;;;;;6404596;22;45288;-70
2023/05/31 07:56:12;;;;;;;;;10.33;10.33;;;;;;;;6375518;22;45978;-69
2023/05/31 07:58:37;;;;;;;;;16.00;13.00;;;;;;;;6404303;22;46371;-69
2023/05/31 08:01:02;;;;;;;;;14.33;12.33;;;;;;;;6403260;22;45280;-69
2023/05/31 08:03:27;;;;;;;;;9.00;9.00;;;;;;;;6404027;22;45252;-69
2023/05/31 08:05:52;;;;;;;;;16.00;14.67;;;;;;;;6403382;22;45269;-69
2023/05/31 08:08:18;;;;;;;;;12.00;11.67;;;;;;;;6373956;22;46944;-69
2023/05/31 08:10:43;;;;;;;;;13.33;12.33;;;;;;;;6403915;22;45146;-69
2023/05/31 08:13:08;;;;;;;;;11.67;11.67;;;;;;;;6374986;22;45232;-69
2023/05/31 08:15:34;;;;;;;;;15.00;11.00;;;;;;;;6402224;22;45210;-70
2023/05/31 08:17:59;;;;;;;;;11.00;11.00;;;;;;;;6404545;22;45316;-70
2023/05/31 08:20:26;;;;;;;;;8.00;7.00;;;;;;;;6374516;22;45684;-70
2023/05/31 08:22:52;;;;;;;;;10.67;10.67;;;;;;;;6402531;22;45364;-70
2023/05/31 08:25:18;;;;;;;;;13.00;12.00;;;;;;;;6373187;22;46958;-70
2023/05/31 08:27:44;;;;;;;;;15.33;11.67;;;;;;;;6403499;22;45379;-70
2023/05/31 08:30:09;;;;;;;;;9.33;7.00;;;;;;;;6403698;22;45242;-70
2023/05/31 08:32:35;;;;;;;;;11.67;11.33;;;;;;;;6403614;22;45219;-69
2023/05/31 08:35:00;;;;;;;;;13.33;12.00;;;;;;;;6403074;22;45270;-70
2023/05/31 08:37:26;;;;;;;;;11.33;11.33;;;;;;;;6403803;22;45544;-69
2023/05/31 08:39:51;;;;;;;;;12.33;12.33;;;;;;;;6404260;22;45379;-69
2023/05/31 08:42:23;;;;;;;;;11.33;10.00;;;;;;;;6404582;22;45312;-69
2023/05/31 08:44:48;;;;;;;;;11.00;9.33;;;;;;;;6402551;22;45444;-69
2023/05/31 08:47:16;;;;;;;;;10.25;10.25;;;;;;;;6404096;22;45460;-70
2023/05/31 08:49:43;;;;;;;;;13.00;11.00;;;;;;;;6403675;22;45344;-70
2023/05/31 08:52:09;;;;;;;;;13.00;12.25;;;;;;;;6404900;22;45233;-70
2023/05/31 08:54:35;;;;;;;;;13.00;11.75;;;;;;;;6374557;22;45689;-70
2023/05/31 08:57:02;;;;;;;;;9.75;9.75;;;;;;;;6403965;22;45489;-70
2023/05/31 08:59:27;;;;;;;;;14.75;11.25;;;;;;;;6402373;22;45143;-70
2023/05/31 09:01:53;;;;;;;;;9.00;9.00;;;;;;;;6404356;22;45193;-70
2023/05/31 09:04:18;;;;;;;;;15.00;12.67;;;;;;;;6403132;22;45556;-69
2023/05/31 09:06:43;;;;;;;;;13.50;10.75;;;;;;;;6374939;22;46743;-69
2023/05/31 09:09:08;;;;;;;;;10.00;10.00;;;;;;;;6375000;22;45242;-69
2023/05/31 09:11:37;;;;;;;;;11.50;10.00;;;;;;;;6403054;22;45296;-69
2023/05/31 09:14:02;;;;;;;;;11.00;10.00;;;;;;;;6402990;22;45342;-69
2023/05/31 09:16:28;;;;;;;;;12.50;11.50;;;;;;;;6404089;22;45263;-69
2023/05/31 09:19:19;;;;;;;;;13.00;11.25;;;;;;;;6403915;22;45288;-69
2023/05/31 09:21:45;;;;;;;;;16.00;15.00;;;;;;;;6396074;22;45676;-69
2023/05/31 09:24:12;;;;;;;;;10.75;10.00;;;;;;;;6403840;22;45363;-69
2023/05/31 09:26:47;;;;;;;;;9.00;9.00;;;;;;;;6403886;22;45305;-69
2023/05/31 09:29:13;;;;;;;;;7.50;5.75;;;;;;;;6372616;22;45468;-69
2023/05/31 09:31:38;;;;;;;;;13.75;11.50;;;;;;;;6374777;22;45239;-70
2023/05/31 09:34:03;;;;;;;;;11.25;9.25;;;;;;;;6403187;22;45420;-69
2023/05/31 09:36:31;;;;;;;;;8.75;7.00;;;;;;;;6403052;22;47997;-69
2023/05/31 09:39:04;;;;;;;;;11.75;9.50;;;;;;;;6402980;22;45210;-69
2023/05/31 09:41:30;;;;;;;;;11.00;10.25;;;;;;;;6404470;22;45257;-70
2023/05/31 09:43:55;;;;;;;;;13.25;10.25;;;;;;;;6402368;22;45205;-69
2023/05/31 09:46:21;;;;;;;;;11.00;10.00;;;;;;;;6403780;22;45494;-69
2023/05/31 09:49:03;;;;;;;;;10.00;9.75;;;;;;;;6374650;22;45695;-70
2023/05/31 09:51:29;;;;;;;;;10.25;8.75;;;;;;;;6376858;22;45340;-69
2023/05/31 09:53:55;;;;;;;;;9.00;5.75;;;;;;;;6375343;22;45634;-70
2023/05/31 09:56:21;;;;;;;;;7.25;7.25;;;;;;;;6376268;22;47231;-70
2023/05/31 09:58:50;;;;;;;;;7.60;7.40;;;;;;;;6402877;22;45136;-69
2023/05/31 10:01:16;;;;;;;;;12.00;10.75;;;;;;;;6405195;22;45158;-70
2023/05/31 10:03:42;;;;;;;;;8.25;7.50;;;;;;;;6404879;22;45464;-72
2023/05/31 10:06:08;;;;;;;;;8.40;7.80;;;;;;;;6375739;22;46338;-69
2023/05/31 10:08:33;;;;;;;;;13.25;13.25;;;;;;;;6404130;22;45638;-70
2023/05/31 10:11:00;;;;;;;;;11.75;10.75;;;;;;;;6376245;22;45167;-69
2023/05/31 10:13:27;;;;;;;;;33.33;31.33;;;;;;;;6376044;22;45983;-70
2023/05/31 10:15:53;;;;;;;;;12.00;8.00;;;;;;;;6404542;22;45739;-70
2023/05/31 10:18:21;;;;;;;;;11.60;10.20;;;;;;;;6405374;22;45629;-70
2023/05/31 10:20:49;;;;;;;;;19.00;18.75;;;;;;;;6405178;22;45356;-71
2023/05/31 10:23:19;;;;;;;;;18.75;16.75;;;;;;;;6403593;22;45381;-71
2023/05/31 10:25:49;;;;;;;;;8.00;6.80;;;;;;;;6404528;22;46441;-69
2023/05/31 10:28:17;;;;;;;;;10.40;9.20;;;;;;;;6404964;22;45246;-70
2023/05/31 10:30:43;;;;;;;;;9.80;8.00;;;;;;;;6375344;22;45216;-69
2023/05/31 10:33:11;;;;;;;;;6.60;5.60;;;;;;;;6404893;22;45220;-69
2023/05/31 10:35:37;;;;;;;;;10.40;7.00;;;;;;;;6375451;22;47449;-70
2023/05/31 10:38:02;;;;;;;;;6.50;5.25;;;;;;;;6375566;22;45267;-69
2023/05/31 10:40:30;;;;;;;;;9.00;6.25;;;;;;;;6404737;22;45245;-70
2023/05/31 10:42:56;;;;;;;;;7.80;7.20;;;;;;;;6404914;22;45268;-70
2023/05/31 10:45:25;;;;;;;;;7.50;6.00;;;;;;;;6374907;22;47071;-70
2023/05/31 10:48:09;;;;;;;;;6.80;5.80;;;;;;;;6404712;22;45363;-70
2023/05/31 10:50:35;;;;;;;;;11.80;9.00;;;;;;;;6374918;22;45288;-70
2023/05/31 10:53:10;;;;;;;;;11.25;8.50;;;;;;;;6404756;22;45519;-70
2023/05/31 10:55:42;;;;;;;;;6.40;5.00;;;;;;;;6404372;22;46059;-70
2023/05/31 10:58:23;;;;;;;;;9.00;7.20;;;;;;;;6405129;22;45151;-70
2023/05/31 11:00:51;;;;;;;;;14.80;10.00;;;;;;;;6403319;22;45209;-70
2023/05/31 11:03:20;;;;;;;;;8.20;7.80;;;;;;;;6404544;22;45448;-70
2023/05/31 11:05:54;;;;;;;;;6.80;6.80;;;;;;;;6375502;22;46873;-70
2023/05/31 11:08:19;;;;;;;;;9.00;7.40;;;;;;;;6374533;22;45309;-69
2023/05/31 11:10:45;;;;;;;;;6.75;5.75;;;;;;;;6404640;22;45242;-70
2023/05/31 11:13:11;;;;;;;;;6.25;6.25;;;;;;;;6404931;22;45265;-69
2023/05/31 11:15:43;;;;;;;;;5.80;4.80;;;;;;;;6403263;22;46236;-70
2023/05/31 11:18:09;;;;;;;;;8.80;7.80;;;;;;;;6375912;22;45322;-70
2023/05/31 11:20:38;;;;;;;;;8.00;8.00;;;;;;;;6404523;22;45342;-70
2023/05/31 11:23:18;;;;;;;;;6.80;6.80;;;;;;;;6404384;22;45258;-71
2023/05/31 11:25:43;;;;;;;;;7.00;6.00;;;;;;;;6404409;22;45439;-71
2023/05/31 11:28:09;;;;;;;;;8.25;7.50;;;;;;;;6375505;22;45270;-71
2023/05/31 11:30:37;;;;;;;;;8.00;6.40;;;;;;;;6404009;22;45463;-70
2023/05/31 11:33:03;;;;;;;;;7.80;5.80;;;;;;;;6404723;22;45191;-70
2023/05/31 11:35:31;;;;;;;;;7.40;6.60;;;;;;;;6404190;22;45256;-69
2023/05/31 11:38:01;;;;;;;;;7.60;6.20;;;;;;;;6375357;22;45130;-70
2023/05/31 11:40:26;;;;;;;;;8.80;7.20;;;;;;;;6375534;22;45240;-69
2023/05/31 11:42:54;;;;;;;;;5.75;5.75;;;;;;;;6375663;22;46109;-70
2023/05/31 11:45:22;;;;;;;;;7.20;4.00;;;;;;;;6403566;22;45471;-70
2023/05/31 11:47:47;;;;;;;;;8.80;7.80;;;;;;;;6374797;22;45132;-70
2023/05/31 11:50:13;;;;;;;;;10.75;8.00;;;;;;;;6404625;22;45207;-70
2023/05/31 11:52:39;;;;;;;;;6.00;6.00;;;;;;;;6404634;22;45225;-70
2023/05/31 11:55:07;;;;;;;;;8.50;8.50;;;;;;;;6374708;22;47492;-70
2023/05/31 11:57:41;;;;;;;;;9.00;7.20;;;;;;;;6404416;22;45236;-70
2023/05/31 12:00:11;;;;;;;;;9.20;8.40;;;;;;;;6374744;22;45274;-70
2023/05/31 12:02:37;;;;;;;;;6.20;6.20;;;;;;;;6375492;22;46824;-70
2023/05/31 12:05:03;;;;;;;;;10.75;8.75;;;;;;;;6404381;22;46208;-70
2023/05/31 12:07:28;;;;;;;;;6.75;5.00;;;;;;;;6372570;22;45266;-70
2023/05/31 12:09:54;;;;;;;;;7.25;7.25;;;;;;;;6404561;22;45179;-71
2023/05/31 12:12:19;;;;;;;;;7.50;7.50;;;;;;;;6403813;22;45463;-70
2023/05/31 12:15:01;;;;;;;;;7.75;6.00;;;;;;;;6403099;22;46224;-70
2023/05/31 12:17:29;;;;;;;;;6.20;6.20;;;;;;;;6404741;22;45568;-70
2023/05/31 12:19:54;;;;;;;;;6.60;6.60;;;;;;;;6404145;22;45259;-70
2023/05/31 12:22:20;;;;;;;;;7.25;7.25;;;;;;;;6374917;22;45714;-70
2023/05/31 12:24:49;;;;;;;;;9.00;8.00;;;;;;;;6375390;22;47109;-71
2023/05/31 12:27:21;;;;;;;;;10.20;7.20;;;;;;;;6404320;22;45115;-71
2023/05/31 12:29:46;;;;;;;;;10.20;8.20;;;;;;;;6404029;22;45203;-70
2023/05/31 12:32:11;;;;;;;;;12.00;8.50;;;;;;;;6404373;22;45387;-70
2023/05/31 12:34:38;;;;;;;;;8.50;7.25;;;;;;;;6404109;22;45297;-71
2023/05/31 12:37:07;;;;;;;;;11.60;9.40;;;;;;;;6404561;22;45297;-70
2023/05/31 12:39:36;;;;;;;;;7.40;7.20;;;;;;;;6404178;22;45168;-71
2023/05/31 12:42:02;;;;;;;;;8.20;7.80;;;;;;;;6404356;22;45275;-71
2023/05/31 12:44:29;;;;;;;;;9.00;9.00;;;;;;;;6403531;22;46384;-70
2023/05/31 12:47:02;;;;;;;;;7.60;6.20;;;;;;;;6404533;22;45094;-71
2023/05/31 12:49:28;;;;;;;;;10.80;9.40;;;;;;;;6404014;22;45219;-71
2023/05/31 12:52:03;;;;;;;;;6.40;6.40;;;;;;;;6404258;22;45273;-70
2023/05/31 12:54:30;;;;;;;;;8.40;8.00;;;;;;;;6374696;22;48343;-70
2023/05/31 12:56:56;;;;;;;;;11.20;9.40;;;;;;;;6404721;22;45160;-71
2023/05/31 12:59:21;;;;;;;;;8.25;8.25;;;;;;;;6404068;22;45186;-71
2023/05/31 13:01:46;;;;;;;;;9.75;9.00;;;;;;;;6375095;22;45614;-70
2023/05/31 13:04:12;;;;;;;;;8.75;8.50;;;;;;;;6404045;22;45165;-71
2023/05/31 13:06:41;;;;;;;;;6.75;6.50;;;;;;;;6375185;22;45687;-70
2023/05/31 13:09:06;;;;;;;;;7.40;6.40;;;;;;;;6403917;22;45308;-71
2023/05/31 13:11:35;;;;;;;;;10.50;10.25;;;;;;;;6403962;22;45243;-71
2023/05/31 13:14:01;;;;;;;;;9.20;7.60;;;;;;;;6402829;22;45785;-71
2023/05/31 13:16:27;;;;;;;;;8.75;8.75;;;;;;;;6375185;22;45205;-71
2023/05/31 13:18:52;;;;;;;;;7.75;7.25;;;;;;;;6404008;22;45192;-71
2023/05/31 13:21:17;;;;;;;;;6.25;5.75;;;;;;;;6375231;22;47409;-71
2023/05/31 13:23:42;;;;;;;;;9.50;8.25;;;;;;;;6374209;22;46905;-71
2023/05/31 13:26:08;;;;;;;;;8.25;8.25;;;;;;;;6374847;22;45313;-71
2023/05/31 13:28:33;;;;;;;;;8.00;7.00;;;;;;;;6403741;22;45206;-71
2023/05/31 13:30:58;;;;;;;;;7.75;7.00;;;;;;;;6403834;22;45099;-71
2023/05/31 13:33:26;;;;;;;;;5.00;5.00;;;;;;;;6404173;22;45252;-70
2023/05/31 13:35:51;;;;;;;;;7.80;7.80;;;;;;;;6403525;22;45242;-71
2023/05/31 13:38:16;;;;;;;;;7.75;7.75;;;;;;;;6403557;22;45280;-71
2023/05/31 13:40:43;;;;;;;;;7.75;7.00;;;;;;;;6403645;22;45275;-70
2023/05/31 13:43:09;;;;;;;;;6.80;6.80;;;;;;;;6374179;22;47771;-71
2023/05/31 13:45:34;;;;;;;;;6.20;6.20;;;;;;;;6374502;22;45213;-72
2023/05/31 13:48:00;;;;;;;;;6.75;4.25;;;;;;;;6404325;22;45246;-71
2023/05/31 13:50:25;;;;;;;;;6.25;6.00;;;;;;;;6403544;22;45425;-71
2023/05/31 13:52:50;;;;;;;;;6.25;6.25;;;;;;;;6404080;22;45453;-70
2023/05/31 13:55:15;;;;;;;;;2.75;2.00;;;;;;;;6403675;22;45081;-70
2023/05/31 13:57:41;;;;;;;;;5.75;5.75;;;;;;;;6404225;22;45181;-70
2023/05/31 14:00:06;;;;;;;;;5.75;5.75;;;;;;;;6374411;22;45987;-70
2023/05/31 14:02:32;;;;;;;;;5.25;5.25;;;;;;;;6403797;22;45363;-71
2023/05/31 14:04:57;;;;;;;;;5.00;5.00;;;;;;;;6403617;22;45175;-70
2023/05/31 14:07:22;;;;;;;;;5.75;5.75;;;;;;;;6403689;22;45365;-71
2023/05/31 14:09:47;;;;;;;;;8.50;5.50;;;;;;;;6403533;22;45285;-71
2023/05/31 14:12:13;;;;;;;;;7.25;4.50;;;;;;;;6403917;22;45511;-71
2023/05/31 14:14:39;;;;;;;;;4.75;4.00;;;;;;;;6373814;22;45384;-71
2023/05/31 14:17:04;;;;;;;;;6.20;6.20;;;;;;;;6404089;22;45203;-71
2023/05/31 14:19:29;;;;;;;;;8.00;7.00;;;;;;;;6403616;22;45238;-71
2023/05/31 14:21:54;;;;;;;;;6.75;6.75;;;;;;;;6404199;22;45351;-71
2023/05/31 14:24:20;;;;;;;;;13.75;9.00;;;;;;;;6403711;22;45214;-70
2023/05/31 14:26:45;;;;;;;;;8.25;6.25;;;;;;;;6404180;22;45292;-70
2023/05/31 14:29:10;;;;;;;;;9.00;7.00;;;;;;;;6403350;22;45547;-73
2023/05/31 14:31:37;;;;;;;;;9.00;7.50;;;;;;;;6403996;22;45381;-69
2023/05/31 14:34:02;;;;;;;;;6.00;6.00;;;;;;;;6403825;22;45282;-70
2023/05/31 14:36:27;;;;;;;;;6.25;5.25;;;;;;;;6376873;22;45297;-70
2023/05/31 14:38:53;;;;;;;;;6.50;5.00;;;;;;;;6404780;22;45261;-70
2023/05/31 14:41:18;;;;;;;;;10.50;6.00;;;;;;;;6405182;22;45276;-72
2023/05/31 14:43:43;;;;;;;;;7.75;7.00;;;;;;;;6404520;22;45323;-72
2023/05/31 14:46:09;;;;;;;;;6.50;5.75;;;;;;;;6405269;22;45207;-70
2023/05/31 14:48:34;;;;;;;;;6.00;6.00;;;;;;;;6375531;22;45505;-72
2023/05/31 14:50:59;;;;;;;;;7.25;7.00;;;;;;;;6405258;22;45309;-70
2023/05/31 14:53:24;;;;;;;;;3.50;3.00;;;;;;;;6405255;22;45246;-72
2023/05/31 14:55:49;;;;;;;;;6.75;6.00;;;;;;;;6405038;22;45359;-72
2023/05/31 14:58:15;;;;;;;;;5.00;5.00;;;;;;;;6405367;22;45492;-73
2023/05/31 15:00:40;;;;;;;;;8.00;6.00;;;;;;;;6404129;22;46629;-70
2023/05/31 15:03:05;;;;;;;;;9.50;6.75;;;;;;;;6376625;22;45962;-69
2023/05/31 15:05:30;;;;;;;;;6.00;6.00;;;;;;;;6405161;22;45213;-72
2023/05/31 15:07:56;;;;;;;;;8.75;6.50;;;;;;;;6375681;22;45858;-70
2023/05/31 15:10:21;;;;;;;;;6.25;5.25;;;;;;;;6404533;22;45317;-73
2023/05/31 15:12:47;;;;;;;;;6.50;5.00;;;;;;;;6376240;22;45193;-71
2023/05/31 15:15:13;;;;;;;;;2.75;2.75;;;;;;;;6375333;22;45402;-70
2023/05/31 15:17:39;;;;;;;;;5.60;4.40;;;;;;;;6404919;22;45183;-70
2023/05/31 15:20:05;;;;;;;;;7.00;5.00;;;;;;;;6404793;22;45336;-70
2023/05/31 15:22:31;;;;;;;;;4.50;4.50;;;;;;;;6349498;22;45306;-70
2023/05/31 15:24:56;;;;;;;;;4.25;4.25;;;;;;;;6405132;22;45253;-70
2023/05/31 15:27:21;;;;;;;;;5.75;4.00;;;;;;;;6405065;22;45381;-70
2023/05/31 15:29:46;;;;;;;;;4.50;3.00;;;;;;;;6404352;22;46288;-70
2023/05/31 15:32:12;;;;;;;;;3.75;3.75;;;;;;;;6376057;22;45263;-70
2023/05/31 15:34:37;;;;;;;;;5.25;4.25;;;;;;;;6404882;22;45518;-70
2023/05/31 15:37:02;;;;;;;;;4.25;3.50;;;;;;;;6404170;22;45283;-71
2023/05/31 15:39:27;;;;;;;;;4.75;3.50;;;;;;;;6404569;22;45398;-70
2023/05/31 15:41:52;;;;;;;;;4.75;4.75;;;;;;;;6404948;22;45260;-70
2023/05/31 15:44:18;;;;;;;;;6.25;4.25;;;;;;;;6404212;22;45269;-70
2023/05/31 15:46:44;;;;;;;;;5.00;4.50;;;;;;;;6404425;22;45241;-70
2023/05/31 15:49:09;;;;;;;;;4.20;4.20;;;;;;;;6404317;22;45354;-70
2023/05/31 15:51:36;;;;;;;;;3.75;3.75;;;;;;;;6404838;22;45205;-70
2023/05/31 15:54:02;;;;;;;;;5.40;5.40;;;;;;;;6404402;22;45241;-70
2023/05/31 15:56:27;;;;;;;;;2.80;2.80;;;;;;;;6404619;22;45259;-69
2023/05/31 15:58:53;;;;;;;;;4.75;4.75;;;;;;;;6374505;22;47715;-70
2023/05/31 16:01:18;;;;;;;;;3.00;3.00;;;;;;;;6404684;22;45208;-70
2023/05/31 16:03:43;;;;;;;;;4.00;4.00;;;;;;;;6404487;22;45077;-70
2023/05/31 16:06:08;;;;;;;;;4.00;4.00;;;;;;;;6375916;22;45431;-70
2023/05/31 16:08:34;;;;;;;;;6.00;4.00;;;;;;;;6374565;22;47004;-71
2023/05/31 16:10:59;;;;;;;;;3.50;3.25;;;;;;;;6375674;22;45154;-70
2023/05/31 16:13:24;;;;;;;;;6.50;5.00;;;;;;;;6404879;22;45150;-70
2023/05/31 16:15:49;;;;;;;;;5.25;4.25;;;;;;;;6374787;22;45700;-70
2023/05/31 16:18:15;;;;;;;;;4.50;4.25;;;;;;;;6375639;22;45586;-69
2023/05/31 16:20:41;;;;;;;;;4.25;2.50;;;;;;;;6404626;22;45259;-70
2023/05/31 16:23:06;;;;;;;;;5.00;5.00;;;;;;;;6404790;22;45200;-70
2023/05/31 16:25:32;;;;;;;;;3.25;3.25;;;;;;;;6404201;22;45241;-70
2023/05/31 16:27:57;;;;;;;;;4.75;4.75;;;;;;;;6404247;22;46215;-70
2023/05/31 16:30:22;;;;;;;;;2.00;2.00;;;;;;;;6374739;22;46088;-70
2023/05/31 16:32:47;;;;;;;;;4.50;4.50;;;;;;;;6375992;22;45305;-69
2023/05/31 16:35:12;;;;;;;;;4.50;4.50;;;;;;;;6374789;22;45908;-70
2023/05/31 16:37:38;;;;;;;;;6.00;4.00;;;;;;;;6375335;22;47539;-71
2023/05/31 16:40:03;;;;;;;;;5.25;5.25;;;;;;;;6403882;22;45271;-71
2023/05/31 16:42:28;;;;;;;;;5.25;3.25;;;;;;;;6404700;22;45745;-73
2023/05/31 16:44:55;;;;;;;;;4.25;2.75;;;;;;;;6403469;22;45398;-71
2023/05/31 16:47:21;;;;;;;;;6.40;5.00;;;;;;;;6403286;22;45362;-70
2023/05/31 16:49:46;;;;;;;;;2.00;2.00;;;;;;;;6403431;22;45128;-71
2023/05/31 16:52:11;;;;;;;;;0.75;0.75;;;;;;;;6404189;22;45405;-70
2023/05/31 16:54:36;;;;;;;;;3.25;3.25;;;;;;;;6403883;22;45384;-70
2023/05/31 16:57:02;;;;;;;;;4.25;3.25;;;;;;;;6403790;22;45267;-70
2023/05/31 16:59:27;;;;;;;;;4.00;4.00;;;;;;;;6375082;22;45855;-71
2023/05/31 17:01:52;;;;;;;;;4.00;3.75;;;;;;;;6375395;22;45202;-71
2023/05/31 17:04:17;;;;;;;;;6.25;3.25;;;;;;;;6403731;22;45446;-71
2023/05/31 17:06:42;;;;;;;;;6.50;6.50;;;;;;;;6404111;22;45239;-71
2023/05/31 17:09:07;;;;;;;;;3.50;3.50;;;;;;;;6403885;22;45305;-71
2023/05/31 17:11:33;;;;;;;;;5.75;5.00;;;;;;;;6403764;22;45516;-71
2023/05/31 17:13:59;;;;;;;;;4.75;4.25;;;;;;;;6403004;22;45150;-70
2023/05/31 17:16:24;;;;;;;;;8.50;4.00;;;;;;;;6374503;22;46899;-71
2023/05/31 17:18:51;;;;;;;;;5.50;4.25;;;;;;;;6403572;22;45185;-70
2023/05/31 17:21:17;;;;;;;;;6.00;4.80;;;;;;;;6374450;22;45332;-71
2023/05/31 17:23:42;;;;;;;;;6.00;5.00;;;;;;;;6403134;22;45347;-71
2023/05/31 17:26:07;;;;;;;;;7.00;5.50;;;;;;;;6403843;22;45346;-70
2023/05/31 17:28:32;;;;;;;;;5.50;4.50;;;;;;;;6374546;22;45341;-69
2023/05/31 17:30:58;;;;;;;;;6.50;5.75;;;;;;;;6403801;22;45329;-71
2023/05/31 17:33:23;;;;;;;;;7.50;6.00;;;;;;;;6403855;22;45259;-70
2023/05/31 17:35:48;;;;;;;;;5.25;5.25;;;;;;;;6403490;22;46040;-71
2023/05/31 17:38:13;;;;;;;;;5.75;5.00;;;;;;;;6403615;22;45345;-70
2023/05/31 17:40:39;;;;;;;;;5.25;5.25;;;;;;;;6373077;22;45303;-70
2023/05/31 17:43:04;;;;;;;;;7.75;6.00;;;;;;;;6403249;22;45477;-70
2023/05/31 17:45:29;;;;;;;;;8.50;5.25;;;;;;;;6403017;22;45874;-70
2023/05/31 17:47:55;;;;;;;;;6.75;5.25;;;;;;;;6403931;22;45253;-71
2023/05/31 17:50:20;;;;;;;;;7.50;5.25;;;;;;;;6403557;22;45272;-71
2023/05/31 17:52:45;;;;;;;;;7.50;5.25;;;;;;;;6404020;22;45444;-71
2023/05/31 17:55:10;;;;;;;;;5.75;5.50;;;;;;;;6374332;22;47115;-70
2023/05/31 17:57:37;;;;;;;;;7.50;6.25;;;;;;;;6372085;22;45581;-69
2023/05/31 18:00:03;;;;;;;;;7.75;5.50;;;;;;;;6402450;22;45273;-69
2023/05/31 18:02:29;;;;;;;;;6.00;6.00;;;;;;;;6402687;22;45157;-69
2023/05/31 18:04:55;;;;;;;;;7.00;5.00;;;;;;;;6402746;22;45526;-69
2023/05/31 18:07:20;;;;;;;;;7.50;5.75;;;;;;;;6402830;22;45356;-69
2023/05/31 18:09:45;;;;;;;;;7.00;6.00;;;;;;;;6403172;22;45272;-69
2023/05/31 18:12:11;;;;;;;;;11.00;6.25;;;;;;;;6404739;22;45265;-70
2023/05/31 18:14:36;;;;;;;;;8.25;6.00;;;;;;;;6402734;22;45257;-69
2023/05/31 18:17:01;;;;;;;;;8.50;5.00;;;;;;;;6404371;22;45300;-69
2023/05/31 18:19:29;;;;;;;;;8.00;6.00;;;;;;;;6404206;22;45221;-70
2023/05/31 18:21:55;;;;;;;;;6.00;6.00;;;;;;;;6404533;22;45218;-70
2023/05/31 18:24:20;;;;;;;;;9.00;6.00;;;;;;;;6403819;22;45264;-69
2023/05/31 18:26:45;;;;;;;;;6.25;4.75;;;;;;;;6404335;22;45205;-69
2023/05/31 18:29:10;;;;;;;;;6.00;6.00;;;;;;;;6403952;22;45183;-69
2023/05/31 18:31:35;;;;;;;;;7.25;6.00;;;;;;;;6404331;22;45221;-70
2023/05/31 18:34:01;;;;;;;;;5.25;5.25;;;;;;;;6404173;22;45348;-70
2023/05/31 18:36:26;;;;;;;;;5.00;5.00;;;;;;;;6403694;22;45415;-69
2023/05/31 18:38:53;;;;;;;;;7.25;6.75;;;;;;;;6405198;22;45157;-70
2023/05/31 18:41:18;;;;;;;;;8.00;6.50;;;;;;;;6375121;22;46769;-70
2023/05/31 18:43:43;;;;;;;;;8.00;6.25;;;;;;;;6404470;22;46229;-69
2023/05/31 18:46:08;;;;;;;;;7.00;7.00;;;;;;;;6404567;22;45235;-70
2023/05/31 18:48:36;;;;;;;;;7.50;7.50;;;;;;;;6405275;22;45209;-70
2023/05/31 18:51:01;;;;;;;;;6.75;6.75;;;;;;;;6404471;22;45466;-70
2023/05/31 18:53:26;;;;;;;;;5.50;4.25;;;;;;;;6404488;22;46487;-69
2023/05/31 18:55:52;;;;;;;;;8.25;8.00;;;;;;;;6404489;22;45213;-69
2023/05/31 18:58:17;;;;;;;;;11.25;7.75;;;;;;;;6404557;22;45465;-70
2023/05/31 19:00:45;;;;;;;;;8.25;6.00;;;;;;;;6404354;22;45313;-70
2023/05/31 19:03:10;;;;;;;;;7.25;6.50;;;;;;;;6404493;22;45552;-71
2023/05/31 19:05:35;;;;;;;;;6.00;6.00;;;;;;;;6404682;22;45356;-70
2023/05/31 19:08:01;;;;;;;;;6.75;6.75;;;;;;;;6404690;22;45132;-70
2023/05/31 19:10:26;;;;;;;;;9.25;7.00;;;;;;;;6404456;22;45186;-70
2023/05/31 19:12:51;;;;;;;;;7.25;5.75;;;;;;;;6375378;22;46365;-71
2023/05/31 19:15:17;;;;;;;;;7.00;6.25;;;;;;;;6402927;22;45284;-70
2023/05/31 19:17:43;;;;;;;;;7.75;7.25;;;;;;;;6375901;22;45149;-70
2023/05/31 19:20:08;;;;;;;;;7.00;7.00;;;;;;;;6403623;22;45245;-70
2023/05/31 19:22:47;;;;;;;;;11.00;9.25;;;;;;;;6404371;22;46189;-70
2023/05/31 19:25:12;;;;;;;;;5.50;5.50;;;;;;;;6402694;22;45304;-70
2023/05/31 19:27:38;;;;;;;;;6.25;6.25;;;;;;;;6405016;22;45267;-70
2023/05/31 19:30:03;;;;;;;;;9.25;8.00;;;;;;;;6403817;22;45273;-70
2023/05/31 19:32:28;;;;;;;;;7.75;7.00;;;;;;;;6404335;22;45474;-72
2023/05/31 19:34:53;;;;;;;;;7.00;3.50;;;;;;;;6404542;22;45241;-70
2023/05/31 19:37:19;;;;;;;;;8.50;7.00;;;;;;;;6404403;22;45451;-71
2023/05/31 19:39:44;;;;;;;;;8.00;8.00;;;;;;;;6403745;22;45405;-72
2023/05/31 19:42:10;;;;;;;;;11.25;8.50;;;;;;;;6374854;22;45709;-71
2023/05/31 19:44:35;;;;;;;;;7.50;5.00;;;;;;;;6374741;22;45181;-71
2023/05/31 19:47:01;;;;;;;;;7.25;7.25;;;;;;;;6403706;22;45340;-71
2023/05/31 19:49:26;;;;;;;;;7.67;5.00;;;;;;;;6404267;22;45226;-70
2023/05/31 19:51:52;;;;;;;;;8.25;6.50;;;;;;;;6404033;22;46388;-71
2023/05/31 19:54:21;;;;;;;;;7.25;6.50;;;;;;;;6404636;22;45240;-71
2023/05/31 19:56:46;;;;;;;;;7.00;7.00;;;;;;;;6404283;22;45297;-71
2023/05/31 19:59:11;;;;;;;;;6.00;6.00;;;;;;;;6375006;22;45281;-71
2023/05/31 20:01:36;;;;;;;;;6.00;6.00;;;;;;;;6404196;22;45443;-71
2023/05/31 20:04:02;;;;;;;;;6.00;6.00;;;;;;;;6404711;22;45268;-71
2023/05/31 20:06:27;;;;;;;;;6.00;6.00;;;;;;;;6404634;22;45290;-71
2023/05/31 20:08:52;;;;;;;;;6.00;5.00;;;;;;;;6404465;22;45352;-71
2023/05/31 20:11:17;;;;;;;;;7.33;7.33;;;;;;;;6404095;22;45362;-70
2023/05/31 20:13:43;;;;;;;;;7.67;7.00;;;;;;;;6402969;22;45289;-70
2023/05/31 20:16:08;;;;;;;;;8.00;8.00;;;;;;;;6403642;22;45257;-69
2023/05/31 20:18:33;;;;;;;;;7.00;7.00;;;;;;;;6404668;22;45267;-70
2023/05/31 20:20:58;;;;;;;;;5.33;5.00;;;;;;;;6374906;22;46716;-71
2023/05/31 20:23:23;;;;;;;;;5.00;4.00;;;;;;;;6374943;22;45238;-69
2023/05/31 20:25:49;;;;;;;;;6.67;6.67;;;;;;;;6375629;22;45432;-71
2023/05/31 20:28:16;;;;;;;;;5.67;5.67;;;;;;;;6403905;22;45257;-69
2023/05/31 20:30:41;;;;;;;;;8.33;7.33;;;;;;;;6404318;22;45218;-71
2023/05/31 20:33:06;;;;;;;;;8.67;7.67;;;;;;;;6374326;22;45534;-71
2023/05/31 20:35:31;;;;;;;;;8.33;7.33;;;;;;;;6403441;22;44719;-70
2023/05/31 20:37:56;;;;;;;;;5.67;5.67;;;;;;;;6404503;22;45521;-71
2023/05/31 20:40:25;;;;;;;;;8.67;5.00;;;;;;;;6403916;22;46289;-70
2023/05/31 20:42:51;;;;;;;;;8.33;7.33;;;;;;;;6374088;22;45453;-72
2023/05/31 20:45:16;;;;;;;;;7.00;7.00;;;;;;;;6402876;22;45186;-69
2023/05/31 20:47:41;;;;;;;;;7.00;6.00;;;;;;;;6375397;22;45415;-70
2023/05/31 20:50:11;;;;;;;;;8.00;7.00;;;;;;;;6403990;22;46684;-71
2023/05/31 20:52:36;;;;;;;;;11.00;6.00;;;;;;;;6404036;22;45242;-71
2023/05/31 20:55:01;;;;;;;;;8.00;5.33;;;;;;;;6404317;22;45063;-71
2023/05/31 20:57:26;;;;;;;;;8.67;7.33;;;;;;;;6374683;22;46619;-71
2023/05/31 20:59:53;;;;;;;;;7.00;7.00;;;;;;;;6374532;22;46707;-70
2023/05/31 21:02:18;;;;;;;;;7.67;6.00;;;;;;;;6404075;22;45146;-71
2023/05/31 21:04:43;;;;;;;;;7.00;6.00;;;;;;;;6404558;22;45365;-71
2023/05/31 21:07:08;;;;;;;;;8.00;5.00;;;;;;;;6374686;22;45785;-71
2023/05/31 21:09:34;;;;;;;;;6.67;6.00;;;;;;;;6404434;22;45219;-71
2023/05/31 21:11:59;;;;;;;;;8.33;6.00;;;;;;;;6404250;22;45266;-71
2023/05/31 21:14:24;;;;;;;;;9.00;7.00;;;;;;;;6403886;22;45244;-71
2023/05/31 21:16:54;;;;;;;;;7.00;7.00;;;;;;;;6403507;22;45168;-71
2023/05/31 21:19:19;;;;;;;;;5.33;5.33;;;;;;;;6403788;22;45357;-72
2023/05/31 21:21:44;;;;;;;;;8.33;5.00;;;;;;;;6374115;22;45320;-71
2023/05/31 21:24:09;;;;;;;;;8.00;5.00;;;;;;;;6404350;22;45391;-71
2023/05/31 21:26:35;;;;;;;;;6.67;6.00;;;;;;;;6403767;22;45418;-70
2023/05/31 21:29:00;;;;;;;;;8.00;7.00;;;;;;;;6403685;22;46379;-70
2023/05/31 21:31:28;;;;;;;;;9.67;7.00;;;;;;;;6403773;22;45297;-71
2023/05/31 21:33:53;;;;;;;;;9.00;8.00;;;;;;;;6403628;22;45328;-70
2023/05/31 21:36:18;;;;;;;;;9.00;6.67;;;;;;;;6374325;22;46131;-69
2023/05/31 21:38:45;;;;;;;;;6.67;5.00;;;;;;;;6403718;22;46391;-70
2023/05/31 21:41:10;;;;;;;;;8.33;7.00;;;;;;;;6374511;22;45364;-70
2023/05/31 21:43:36;;;;;;;;;10.00;10.00;;;;;;;;6404084;22;45452;-71
2023/05/31 21:46:01;;;;;;;;;6.67;6.00;;;;;;;;6404295;22;45374;-70